SNOW

Not for real navigation. The accuracy of this data is not assured See disclaimer for more information



ICAO NAME COUNTRY WIND Kt GUST Kt VIS m TEMP/DEW C BARO METAR
CYWK Wabush Lake, Nfld. Canada 2 0 1200 0/-1 29.68 CYWK 160742Z AUTO 05002KT 0.75SM -SN VV010 M00/M01 A2968 RMK SLP075
EFRO Rovaniemi Finland 3 0 1200 0/0 30.06 EFRO 160720Z 32003KT 280V350 1200 0700E R21/0800 -SN BCFG SCT001 OVC009 00/00 Q1018
CYMM Fort Mcmurray, Alta. Canada 9 17 1600 0/0 29.76 CYMM 160732Z AUTO 13009G17KT 1 0.25SM -SN SCT009 OVC015 00/M00 A2976 RMK ICG INTMT SLP097
ULWC 1 0 2100 0/0 30.33 ULWC 160730Z 18001KT 2100 -SNRA BKN003 00/00 Q1027 R21/010065 NOSIG RMK QBB110 QFE760/1013
CYZF Yellowknife, N. W. T. Canada 12 19 3200 0/-1 29.75 CYZF 160700Z 12012G19KT 2SM -SN OVC010 00/M01 A2975 RMK SC8 CIG RAG SLP091

Show more